Home   Weather   Finland   Helsinki   Past weeks
Flag for Finland

Past Weather in Helsinki, Finland — Yesterday and Last 2 Weeks

Currently: 86 °F. Passing clouds. (Weather station: Helsinki-Vantaa, Finland). See more current weather

Past Weather in Helsinki — Graph

°F

Helsinki Temperature Yesterday

Maximum temperature yesterday: 81 °F (at 10:20 am)
Minimum temperature yesterday: 59 °F (at 2:20 am)
Average temperature yesterday: 73 °F

High & Low Weather Summary for the Past Weeks

 TemperatureHumidityPressure
High88 °F (Jun 26, 3:50 pm)100% (Jun 18, 1:20 am)30.18 "Hg (Jun 18, 1:20 am)
Low43 °F (Jun 21, 3:50 am)32% (Jun 30, 5:20 pm)29.50 "Hg (Jun 19, 3:50 am)
Average67 °F65%29.95 "Hg
* Reported Jun 17 1:20 pm — Jul 2 1:50 pm, Helsinki. Weather by CustomWeather, © 2022

Note: Actual official high and low records may vary slightly from our data, if they occured in-between our weather recording intervals... More about our weather records

Helsinki Weather History for the Previous 24 Hours

Scroll right to see more
 ConditionsComfort  
Time TempWeatherWind HumidityBarometerVisibility
1:50 pm
Sat, Jul 2
84 °FSunny.14 mph40%30.07 "Hg10 mi
1:20 pm82 °FPassing clouds.13 mph42%30.07 "HgN/A
12:50 pm84 °FPassing clouds.13 mph37%30.07 "HgN/A
12:20 pm84 °FPassing clouds.13 mph37%30.07 "HgN/A
11:50 am82 °FPassing clouds.12 mph40%30.07 "HgN/A
11:20 am82 °FSunny.13 mph42%30.07 "Hg10 mi
10:50 am81 °FSunny.13 mph45%30.07 "Hg10 mi
9:50 am81 °FSunny.10 mph48%30.07 "Hg10 mi
9:20 am79 °FSunny.12 mph51%30.07 "Hg10 mi
8:50 am79 °FSunny.8 mph51%30.07 "Hg10 mi
7:50 am75 °FSunny.8 mph61%30.09 "Hg10 mi
7:20 am72 °FPassing clouds.5 mph69%30.09 "HgN/A
6:50 am72 °FSunny.6 mph65%30.09 "Hg10 mi
6:20 am70 °FSunny.5 mph69%30.09 "Hg10 mi
5:50 am70 °FSunny.5 mph69%30.09 "Hg10 mi
5:20 am70 °FSunny.6 mph69%30.09 "Hg10 mi
4:50 am70 °FPassing clouds.6 mph69%30.09 "HgN/A
4:20 am70 °FSunny.7 mph69%30.09 "Hg10 mi
3:50 am70 °FClear.7 mph64%30.09 "Hg10 mi
2:20 am70 °FClear.5 mph69%30.09 "Hg10 mi
1:50 am72 °FClear.5 mph65%30.09 "Hg10 mi
1:20 am72 °FClear.6 mph65%30.09 "Hg10 mi
12:50 am72 °FClear.6 mph65%30.09 "Hg10 mi
12:20 am72 °FClear.6 mph65%30.09 "Hg10 mi
11:50 pm
Fri, Jul 1
72 °FClear.7 mph65%30.09 "Hg10 mi
11:20 pm72 °FClear.8 mph61%30.09 "Hg10 mi
10:50 pm72 °FClear.7 mph61%30.09 "Hg10 mi
10:20 pm73 °FSunny.6 mph57%30.09 "Hg10 mi
9:50 pm73 °FSunny.8 mph57%30.09 "Hg10 mi
9:20 pm73 °FScattered showers. Clear.8 mph57%30.09 "HgN/A
8:50 pm75 °FSunny.8 mph50%30.09 "Hg10 mi
8:20 pm75 °FSprinkles. Passing clouds.10 mph50%30.09 "HgN/A
7:50 pm75 °FPassing clouds.9 mph50%30.09 "HgN/A
6:50 pm77 °FScattered showers. Passing clouds.12 mph44%30.12 "HgN/A
6:20 pm77 °FScattered showers. Passing clouds.10 mph42%30.12 "HgN/A
5:50 pm79 °FScattered showers. Passing clouds.12 mph39%30.09 "HgN/A
5:20 pm79 °FScattered showers. Passing clouds.14 mph42%30.12 "HgN/A
4:50 pm81 °FSunny.14 mph39%30.12 "Hg10 mi
4:20 pm81 °FSunny.14 mph37%30.12 "Hg10 mi
3:50 pm81 °FSunny.14 mph39%30.12 "Hg10 mi
3:20 pm81 °FPassing clouds.12 mph37%30.12 "HgN/A
Weather by CustomWeather, © 2022

See weather overview